createdAt,value
2018-04-01T00:00:25.105Z,0
2018-04-01T00:01:25.388Z,0
2018-04-01T00:02:40.051Z,0
2018-04-01T00:03:25.157Z,0
2018-04-01T00:04:25.429Z,0
2018-04-01T00:05:40.102Z,0
2018-04-01T00:06:25.198Z,0
2018-04-01T00:08:40.144Z,0
2018-04-01T00:09:25.504Z,0
2018-04-01T00:10:25.522Z,0
2018-04-01T00:11:25.536Z,0
2018-04-01T00:12:25.547Z,0
2018-04-01T00:13:25.564Z,0
2018-04-01T00:14:25.612Z,0
2018-04-01T00:15:25.703Z,0
2018-04-01T00:16:25.608Z,0
2018-04-01T00:17:40.293Z,0
2018-04-01T00:18:25.379Z,0
2018-04-01T00:19:25.652Z,0
2018-04-01T00:20:25.667Z,0
2018-04-01T00:21:25.697Z,0
2018-04-01T00:22:25.740Z,0
2018-04-01T00:23:40.370Z,0
2018-04-01T00:24:40.385Z,0
2018-04-01T00:25:55.058Z,0
2018-04-01T00:26:25.759Z,0
2018-04-01T00:27:25.815Z,0
2018-04-01T00:28:25.789Z,0
2018-04-01T00:29:25.845Z,0
2018-04-01T00:30:25.819Z,0
2018-04-01T00:31:25.577Z,0
2018-04-01T00:32:40.504Z,0
2018-04-01T00:33:25.609Z,0
2018-04-01T00:34:25.878Z,0
2018-04-01T00:35:25.893Z,0
2018-04-01T00:36:25.912Z,0
2018-04-01T00:37:25.923Z,0
2018-04-01T00:38:25.423Z,0
2018-04-01T00:39:40.611Z,0
2018-04-01T00:40:25.971Z,0
2018-04-01T00:42:26.004Z,0
2018-04-01T00:43:26.018Z,0
2018-04-01T00:44:26.027Z,0
2018-04-01T00:45:26.041Z,0
2018-04-01T00:46:40.717Z,0
2018-04-01T00:47:26.072Z,0
2018-04-01T00:48:40.748Z,0
2018-04-01T00:49:40.759Z,0
2018-04-01T00:50:26.136Z,0
2018-04-01T00:51:25.874Z,0
2018-04-01T00:52:26.144Z,0
2018-04-01T00:53:26.162Z,0
2018-04-01T00:55:26.191Z,0
2018-04-01T00:56:25.974Z,0
2018-04-01T00:57:40.875Z,0
2018-04-01T00:59:26.252Z,0
2018-04-01T01:01:26.285Z,0
2018-04-01T01:02:26.302Z,0
2018-04-01T01:03:40.968Z,0
2018-04-01T01:04:26.334Z,0
2018-04-01T01:05:26.344Z,0
2018-04-01T01:06:26.363Z,0
2018-04-01T01:07:26.373Z,0
2018-04-01T01:08:26.384Z,0
2018-04-01T01:09:26.404Z,0
2018-04-01T01:10:41.072Z,0
2018-04-01T01:11:26.438Z,0
2018-04-01T01:12:26.189Z,0
2018-04-01T01:13:55.773Z,0
2018-04-01T01:14:26.219Z,0
2018-04-01T01:17:26.258Z,0
2018-04-01T01:18:26.533Z,0
2018-04-01T01:19:26.287Z,0
2018-04-01T01:20:26.302Z,0
2018-04-01T01:21:41.231Z,0
2018-04-01T01:23:26.343Z,0
2018-04-01T01:24:26.364Z,0
2018-04-01T01:25:26.740Z,0
2018-04-01T01:26:26.389Z,0
2018-04-01T01:27:26.404Z,0
2018-04-01T01:28:41.342Z,0
2018-04-01T01:29:26.696Z,0
2018-04-01T01:30:26.457Z,0
2018-04-01T01:31:41.445Z,0
2018-04-01T01:32:26.741Z,0
2018-04-01T01:33:26.501Z,0
2018-04-01T01:34:26.512Z,0
2018-04-01T01:35:26.529Z,0
2018-04-01T01:36:41.461Z,0
2018-04-01T01:37:26.819Z,0
2018-04-01T01:38:26.829Z,0
2018-04-01T01:39:26.580Z,0
2018-04-01T01:40:26.341Z,0
2018-04-01T01:41:26.874Z,0
2018-04-01T01:42:26.983Z,0
2018-04-01T01:43:26.648Z,0
2018-04-01T01:44:26.656Z,0
2018-04-01T01:45:26.668Z,0
2018-04-01T01:46:26.693Z,0
2018-04-01T01:47:26.963Z,0
2018-04-01T01:48:26.971Z,0
2018-04-01T01:49:26.730Z,0
2018-04-01T01:50:41.662Z,0
2018-04-01T01:51:26.762Z,0
2018-04-01T01:52:41.430Z,0
2018-04-01T01:53:27.054Z,0
2018-04-01T01:54:27.061Z,0
2018-04-01T01:55:27.077Z,0
2018-04-01T01:56:26.832Z,0
2018-04-01T01:57:26.849Z,0
2018-04-01T01:58:27.125Z,0
2018-04-01T02:00:56.465Z,0
2018-04-01T02:01:26.904Z,0
2018-04-01T02:02:26.926Z,0
2018-04-01T02:03:27.192Z,0
2018-04-01T02:04:26.948Z,0
2018-04-01T02:06:27.237Z,0
2018-04-01T02:07:26.992Z,0
2018-04-01T02:08:27.007Z,0
2018-04-01T02:09:27.026Z,0
2018-04-01T02:10:27.310Z,0
2018-04-01T02:11:27.050Z,0
2018-04-01T02:12:27.066Z,0
2018-04-01T02:13:27.083Z,0
2018-04-01T02:14:27.095Z,0
2018-04-01T02:15:27.112Z,0
2018-04-01T02:16:42.041Z,0
2018-04-01T02:17:27.403Z,0
2018-04-01T02:18:27.413Z,0
2018-04-01T02:20:27.444Z,0
2018-04-01T02:21:27.457Z,0
2018-04-01T02:22:42.142Z,0
2018-04-01T02:23:27.494Z,0
2018-04-01T02:24:27.039Z,0
2018-04-01T02:25:27.525Z,0
2018-04-01T02:26:27.540Z,0
2018-04-01T02:27:27.548Z,0
2018-04-01T02:28:27.557Z,0
2018-04-01T02:29:27.324Z,0
2018-04-01T02:30:27.337Z,0
2018-04-01T02:31:27.713Z,0
2018-04-01T02:32:42.281Z,0
2018-04-01T02:33:27.646Z,0
2018-04-01T02:34:27.677Z,0
2018-04-01T02:35:27.682Z,0
2018-04-01T02:36:27.423Z,0
2018-04-01T02:37:41.830Z,0
2018-04-01T02:38:27.461Z,0
2018-04-01T02:39:27.748Z,0
2018-04-01T02:40:42.399Z,0
2018-04-01T02:41:27.488Z,0
2018-04-01T02:42:27.838Z,0
2018-04-01T02:43:27.525Z,0
2018-04-01T02:44:27.806Z,0
2018-04-01T02:45:27.557Z,0
2018-04-01T02:46:27.575Z,0
2018-04-01T02:47:27.317Z,0
2018-04-01T02:48:57.165Z,0
2018-04-01T02:49:42.534Z,0
2018-04-01T02:50:27.625Z,0
2018-04-01T02:51:27.639Z,0
2018-04-01T02:52:27.662Z,0
2018-04-01T02:53:27.940Z,0
2018-04-01T02:54:27.724Z,0
2018-04-01T02:55:27.966Z,0
2018-04-01T02:56:27.708Z,0
2018-04-01T02:57:27.722Z,0
2018-04-01T02:58:28.003Z,0
2018-04-01T03:00:28.052Z,0
2018-04-01T03:01:42.715Z,0
2018-04-01T03:02:28.066Z,0
2018-04-01T03:03:42.734Z,0
2018-04-01T03:04:27.846Z,0
2018-04-01T03:05:28.105Z,0
2018-04-01T03:06:28.120Z,0
2018-04-01T03:07:28.156Z,0
2018-04-01T03:08:28.188Z,0
2018-04-01T03:09:27.907Z,0
2018-04-01T03:10:28.170Z,0
2018-04-01T03:11:28.187Z,0
2018-04-01T03:12:28.201Z,0
2018-04-01T03:13:27.955Z,0
2018-04-01T03:14:28.229Z,0
2018-04-01T03:15:28.244Z,0
2018-04-01T03:16:28.263Z,0
2018-04-01T03:17:28.270Z,0
2018-04-01T03:18:28.297Z,0
2018-04-01T03:19:42.700Z,0
2018-04-01T03:20:28.314Z,0
2018-04-01T03:21:28.332Z,0
2018-04-01T03:22:28.350Z,0
2018-04-01T03:23:28.357Z,0
2018-04-01T03:24:28.117Z,0
2018-04-01T03:25:28.389Z,0
2018-04-01T03:26:43.075Z,0
2018-04-01T03:27:28.157Z,0
2018-04-01T03:28:28.433Z,0
2018-04-01T03:29:28.239Z,0
2018-04-01T03:30:28.481Z,0
2018-04-01T03:31:28.503Z,0
2018-04-01T03:32:28.494Z,0
2018-04-01T03:33:28.509Z,0
2018-04-01T03:34:28.521Z,0
2018-04-01T03:35:42.937Z,0
2018-04-01T03:36:28.561Z,0
2018-04-01T03:37:28.561Z,0
2018-04-01T03:38:28.315Z,0
2018-04-01T03:39:28.338Z,0
2018-04-01T03:40:28.616Z,0
2018-04-01T03:41:28.619Z,0
2018-04-01T03:42:28.640Z,0
2018-04-01T03:43:28.651Z,0
2018-04-01T03:44:28.513Z,0
2018-04-01T03:45:28.675Z,0
2018-04-01T03:46:28.703Z,0
2018-04-01T03:48:28.725Z,0
2018-04-01T03:49:28.483Z,0
2018-04-01T03:50:28.759Z,0
2018-04-01T03:51:43.427Z,0
2018-04-01T03:52:28.786Z,0
2018-04-01T03:53:28.814Z,0
2018-04-01T03:54:28.549Z,0
2018-04-01T03:55:28.831Z,0
2018-04-01T03:56:28.584Z,0
2018-04-01T03:57:28.596Z,0
2018-04-01T03:58:43.523Z,0
2018-04-01T03:59:28.621Z,0
2018-04-01T04:01:28.650Z,0
2018-04-01T04:02:28.665Z,0
2018-04-01T04:03:28.684Z,0
2018-04-01T04:04:28.965Z,0
2018-04-01T04:05:28.722Z,0
2018-04-01T04:06:28.723Z,0
2018-04-01T04:07:43.652Z,0
2018-04-01T04:08:43.408Z,0
2018-04-01T04:09:28.507Z,0
2018-04-01T04:10:28.789Z,0
2018-04-01T04:11:43.191Z,0
2018-04-01T04:12:43.204Z,0
2018-04-01T04:13:29.088Z,0
2018-04-01T04:14:28.836Z,0
2018-04-01T04:15:28.592Z,0
2018-04-01T04:16:43.823Z,0
2018-04-01T04:17:28.884Z,0
2018-04-01T04:18:43.551Z,0
2018-04-01T04:19:28.911Z,0
2018-04-01T04:20:29.182Z,0
2018-04-01T04:21:29.298Z,0
2018-04-01T04:23:43.881Z,0
2018-04-01T04:25:43.656Z,4
2018-04-01T04:27:29.339Z,4
2018-04-01T04:28:29.037Z,4
2018-04-01T04:29:29.311Z,4
2018-04-01T04:30:29.329Z,4
2018-04-01T04:31:28.821Z,4
2018-04-01T04:32:29.357Z,8
2018-04-01T04:33:29.365Z,8
2018-04-01T04:34:29.392Z,4
2018-04-01T04:35:29.402Z,8
2018-04-01T04:36:28.941Z,12
2018-04-01T04:37:29.426Z,12
2018-04-01T04:38:43.839Z,12
2018-04-01T04:39:29.195Z,16
2018-04-01T04:40:29.468Z,16
2018-04-01T04:41:29.588Z,16
2018-04-01T04:42:29.509Z,16
2018-04-01T04:43:29.514Z,16
2018-04-01T04:44:44.183Z,16
2018-04-01T04:45:29.543Z,24
2018-04-01T04:46:29.570Z,20
2018-04-01T04:47:29.311Z,24
2018-04-01T04:48:29.584Z,28
2018-04-01T04:49:29.340Z,28
2018-04-01T04:50:29.613Z,36
2018-04-01T04:52:29.381Z,44
2018-04-01T04:54:29.416Z,52
2018-04-01T04:55:29.424Z,52
2018-04-01T04:56:29.810Z,56
2018-04-01T04:57:29.713Z,72
2018-04-01T04:58:29.733Z,60
2018-04-01T04:59:29.740Z,64
2018-04-01T05:00:29.756Z,76
2018-04-01T05:01:44.428Z,76
2018-04-01T05:02:29.531Z,76
2018-04-01T05:03:29.802Z,80
2018-04-01T05:04:29.827Z,84
2018-04-01T05:05:29.835Z,88
2018-04-01T05:06:29.840Z,92
2018-04-01T05:07:29.908Z,100
2018-04-01T05:08:30.023Z,96
2018-04-01T05:09:29.948Z,108
2018-04-01T05:10:59.213Z,124
2018-04-01T05:11:29.914Z,124
2018-04-01T05:12:29.928Z,124
2018-04-01T05:13:29.743Z,136
2018-04-01T05:14:29.960Z,144
2018-04-01T05:15:29.970Z,156
2018-04-01T05:16:30.037Z,160
2018-04-01T05:17:44.656Z,180
2018-04-01T05:19:30.029Z,204
2018-04-01T05:20:30.044Z,192
2018-04-01T05:21:30.056Z,208
2018-04-01T05:23:30.082Z,216
2018-04-01T05:24:44.773Z,236
2018-04-01T05:25:44.770Z,256
2018-04-01T05:27:29.882Z,304
2018-04-01T05:28:30.171Z,328
2018-04-01T05:29:44.832Z,332
2018-04-01T05:30:30.186Z,304
2018-04-01T05:31:30.207Z,320
2018-04-01T05:32:30.228Z,336
2018-04-01T05:33:29.973Z,308
2018-04-01T05:34:30.256Z,328
2018-04-01T05:35:30.259Z,368
2018-04-01T05:36:30.274Z,360
2018-04-01T05:37:30.285Z,364
2018-04-01T05:39:30.054Z,412
2018-04-01T05:40:30.328Z,380
2018-04-01T05:41:30.347Z,396
2018-04-01T05:42:45.011Z,408
2018-04-01T05:43:30.373Z,420
2018-04-01T05:44:30.383Z,448
2018-04-01T05:45:30.400Z,408
2018-04-01T05:46:45.076Z,420
2018-04-01T05:47:30.427Z,424
2018-04-01T05:48:30.442Z,436
2018-04-01T05:49:45.120Z,484
2018-04-01T05:50:30.218Z,456
2018-04-01T05:51:45.146Z,484
2018-04-01T05:52:30.501Z,464
2018-04-01T05:53:30.518Z,496
2018-04-01T05:54:30.535Z,540
2018-04-01T05:55:30.539Z,544
2018-04-01T05:56:30.555Z,556
2018-04-01T05:57:30.580Z,620
2018-04-01T05:58:59.899Z,648
2018-04-01T06:01:30.628Z,640
2018-04-01T06:02:30.387Z,720
2018-04-01T06:03:30.654Z,752
2018-04-01T06:04:30.668Z,924
2018-04-01T06:05:30.426Z,880
2018-04-01T06:06:30.493Z,932
2018-04-01T06:07:30.455Z,1012
2018-04-01T06:08:30.727Z,988
2018-04-01T06:09:45.146Z,948
2018-04-01T06:10:30.497Z,1084
2018-04-01T06:11:30.512Z,1064
2018-04-01T06:12:30.785Z,1068
2018-04-01T06:14:30.560Z,1040
2018-04-01T06:15:30.829Z,1056
2018-04-01T06:16:30.326Z,1180
2018-04-01T06:17:30.961Z,1096
2018-04-01T06:18:30.616Z,1192
2018-04-01T06:19:30.631Z,1244
2018-04-01T06:20:30.912Z,1260
2018-04-01T06:21:45.574Z,1224
2018-04-01T06:22:30.929Z,1272
2018-04-01T06:23:30.948Z,1288
2018-04-01T06:24:30.701Z,1288
2018-04-01T06:25:30.982Z,1348
2018-04-01T06:26:30.991Z,1312
2018-04-01T06:27:31.001Z,1424
2018-04-01T06:28:45.674Z,1324
2018-04-01T06:29:30.773Z,1316
2018-04-01T06:31:30.801Z,1400
2018-04-01T06:32:31.080Z,1440
2018-04-01T06:33:30.830Z,1512
2018-04-01T06:34:31.113Z,1480
2018-04-01T06:35:31.145Z,1460
2018-04-01T06:36:30.873Z,1552
2018-04-01T06:37:30.894Z,1732
2018-04-01T06:38:30.642Z,1860
2018-04-01T06:39:45.316Z,1700
2018-04-01T06:41:30.951Z,1892
2018-04-01T06:42:30.969Z,1932
2018-04-01T06:43:31.080Z,2004
2018-04-01T06:44:30.990Z,2000
2018-04-01T06:46:00.580Z,1920
2018-04-01T06:46:45.944Z,2124
2018-04-01T06:47:31.298Z,1948
2018-04-01T06:48:31.310Z,1972
2018-04-01T06:49:31.074Z,1900
2018-04-01T06:50:31.077Z,1984
2018-04-01T06:51:31.091Z,1932
2018-04-01T06:52:31.106Z,1732
2018-04-01T06:53:31.380Z,1924
2018-04-01T06:54:31.135Z,1724
2018-04-01T06:55:31.412Z,1696
2018-04-01T06:56:31.423Z,1832
2018-04-01T06:57:31.176Z,1964
2018-04-01T06:58:31.460Z,1956
2018-04-01T06:59:31.211Z,1940
2018-04-01T07:00:31.225Z,1740
2018-04-01T07:02:00.812Z,1876
2018-04-01T07:02:31.606Z,2248
2018-04-01T07:03:31.526Z,2104
2018-04-01T07:04:46.200Z,1940
2018-04-01T07:05:31.557Z,1792
2018-04-01T07:06:31.319Z,1892
2018-04-01T07:07:46.249Z,1732
2018-04-01T07:08:31.609Z,1784
2018-04-01T07:09:31.362Z,1808
2018-04-01T07:10:31.647Z,1840
2018-04-01T07:11:31.641Z,1872
2018-04-01T07:12:31.663Z,2052
2018-04-01T07:13:31.722Z,1992
2018-04-01T07:14:31.685Z,1988
2018-04-01T07:15:31.462Z,2084
2018-04-01T07:16:31.720Z,2016
2018-04-01T07:17:46.387Z,2260
2018-04-01T07:18:31.746Z,2036
2018-04-01T07:19:31.503Z,2000
2018-04-01T07:20:31.519Z,2196
2018-04-01T07:21:31.790Z,2008
2018-04-01T07:22:31.803Z,1976
2018-04-01T07:23:31.822Z,2128
2018-04-01T07:24:31.579Z,2168
2018-04-01T07:25:31.852Z,2164
2018-04-01T07:26:31.861Z,2272
2018-04-01T07:27:31.977Z,2148
2018-04-01T07:28:46.289Z,2228
2018-04-01T07:29:46.589Z,2096
2018-04-01T07:30:31.919Z,2064
2018-04-01T07:31:31.945Z,2404
2018-04-01T07:32:31.949Z,2444
2018-04-01T07:33:46.364Z,2612
2018-04-01T07:34:46.379Z,2808
2018-04-01T07:35:32.003Z,2776
2018-04-01T07:36:32.009Z,2560
2018-04-01T07:37:32.026Z,2476
2018-04-01T07:38:46.441Z,2588
2018-04-01T07:39:31.795Z,2464
2018-04-01T07:40:32.084Z,2744
2018-04-01T07:41:32.086Z,3184
2018-04-01T07:42:32.120Z,2740
2018-04-01T07:43:31.595Z,2800
2018-04-01T07:44:32.134Z,3140
2018-04-01T07:45:32.143Z,2928
2018-04-01T07:46:32.162Z,3364
2018-04-01T07:47:46.832Z,2896
2018-04-01T07:49:01.505Z,3140
2018-04-01T07:49:32.208Z,3248
2018-04-01T07:50:32.218Z,3220
2018-04-01T07:51:32.239Z,3524
2018-04-01T07:52:32.007Z,4136
2018-04-01T07:53:32.261Z,3984
2018-04-01T07:54:32.282Z,3704
2018-04-01T07:55:32.038Z,4072
2018-04-01T07:57:32.067Z,3972
2018-04-01T07:58:32.082Z,3876
2018-04-01T07:59:32.111Z,4588
2018-04-01T08:00:32.369Z,4404
2018-04-01T08:01:32.383Z,4428
2018-04-01T08:02:32.401Z,4464
2018-04-01T08:03:32.160Z,3912
2018-04-01T08:05:32.184Z,3784
2018-04-01T08:06:32.456Z,4084
2018-04-01T08:07:32.471Z,3976
2018-04-01T08:08:32.226Z,3868
2018-04-01T08:09:32.551Z,4076
2018-04-01T08:10:32.526Z,4184
2018-04-01T08:11:32.536Z,4320
2018-04-01T08:12:32.547Z,4556
2018-04-01T08:13:32.612Z,4700
2018-04-01T08:14:47.238Z,3976
2018-04-01T08:15:32.592Z,4108
2018-04-01T08:16:32.607Z,3976
2018-04-01T08:17:32.620Z,3536
2018-04-01T08:18:32.744Z,3720
2018-04-01T08:19:32.687Z,4036
2018-04-01T08:20:47.328Z,4124
2018-04-01T08:21:32.688Z,4428
2018-04-01T08:24:32.467Z,3676
2018-04-01T08:25:32.742Z,3712
2018-04-01T08:26:32.761Z,3236
2018-04-01T08:27:32.780Z,3048
2018-04-01T08:28:32.795Z,3736
2018-04-01T08:29:32.809Z,3668
2018-04-01T08:30:32.559Z,3684
2018-04-01T08:31:32.577Z,3872
2018-04-01T08:32:32.862Z,3660
2018-04-01T08:33:32.605Z,3536
2018-04-01T08:34:32.621Z,3584
2018-04-01T08:35:32.900Z,3584
2018-04-01T08:37:02.224Z,3564
2018-04-01T08:37:32.927Z,3824
2018-04-01T08:38:32.940Z,3548
2018-04-01T08:39:32.704Z,3840
2018-04-01T08:40:47.629Z,3884
2018-04-01T08:41:32.990Z,4088
2018-04-01T08:42:33.000Z,4084
2018-04-01T08:43:47.674Z,4036
2018-04-01T08:44:32.784Z,3892
2018-04-01T08:45:33.050Z,4044
2018-04-01T08:46:33.068Z,3740
2018-04-01T08:47:47.736Z,3548
2018-04-01T08:48:33.106Z,3536
2018-04-01T08:49:47.766Z,4624
2018-04-01T08:50:47.780Z,4344
2018-04-01T08:51:33.144Z,3800
2018-04-01T08:52:47.548Z,4036
2018-04-01T08:54:33.189Z,3944
2018-04-01T08:55:33.206Z,3848
2018-04-01T08:56:33.219Z,4128
2018-04-01T08:57:33.227Z,4008
2018-04-01T08:58:33.254Z,3832
2018-04-01T08:59:33.324Z,3736
2018-04-01T09:00:33.279Z,4432
2018-04-01T09:01:33.043Z,4772
2018-04-01T09:02:33.044Z,4644
2018-04-01T09:03:33.317Z,4936
2018-04-01T09:04:33.079Z,4544
2018-04-01T09:05:33.100Z,4100
2018-04-01T09:06:33.106Z,4292
2018-04-01T09:07:33.122Z,4720
2018-04-01T09:08:48.052Z,4852
2018-04-01T09:09:32.892Z,4404
2018-04-01T09:10:33.554Z,4580
2018-04-01T09:11:33.186Z,4392
2018-04-01T09:12:33.454Z,4456
2018-04-01T09:13:33.472Z,4628
2018-04-01T09:14:33.225Z,4412
2018-04-01T09:15:33.509Z,4752
2018-04-01T09:16:48.175Z,4368
2018-04-01T09:17:33.536Z,3848
2018-04-01T09:18:33.546Z,4052
2018-04-01T09:19:33.303Z,4012
2018-04-01T09:20:33.319Z,3960
2018-04-01T09:21:33.598Z,3808
2018-04-01T09:22:48.268Z,4592
2018-04-01T09:23:48.288Z,3904
2018-04-01T09:24:33.379Z,4204
2018-04-01T09:25:33.656Z,4952
2018-04-01T09:26:33.674Z,5308
2018-04-01T09:27:33.789Z,4700
2018-04-01T09:28:33.708Z,4524
2018-04-01T09:29:33.457Z,3908
2018-04-01T09:30:48.389Z,4636
2018-04-01T09:31:33.749Z,4872
2018-04-01T09:32:33.770Z,5700
2018-04-01T09:33:33.784Z,6220
2018-04-01T09:34:33.792Z,6632
2018-04-01T09:35:33.549Z,6136
2018-04-01T09:36:33.304Z,6016
2018-04-01T09:37:33.836Z,5552
2018-04-01T09:38:48.527Z,6048
2018-04-01T09:39:33.629Z,5624
2018-04-01T09:41:33.898Z,5488
2018-04-01T09:42:33.659Z,5748
2018-04-01T09:43:33.928Z,5304
2018-04-01T09:44:33.689Z,5812
2018-04-01T09:45:33.700Z,5796
2018-04-01T09:46:48.634Z,5636
2018-04-01T09:47:48.648Z,5964
2018-04-01T09:48:34.005Z,6076
2018-04-01T09:49:34.026Z,5648
2018-04-01T09:51:33.537Z,5328
2018-04-01T09:52:33.808Z,4848
2018-04-01T09:53:33.824Z,5540
2018-04-01T09:54:48.763Z,5880
2018-04-01T09:56:03.430Z,6216
2018-04-01T09:56:34.149Z,6592
2018-04-01T09:57:33.890Z,6344
2018-04-01T09:58:34.159Z,5932
2018-04-01T09:59:33.915Z,6392
2018-04-01T10:00:33.933Z,6352
2018-04-01T10:01:33.951Z,7100
2018-04-01T10:02:33.970Z,6472
2018-04-01T10:03:34.252Z,7092
2018-04-01T10:04:34.257Z,7864
2018-04-01T10:05:34.009Z,6792
2018-04-01T10:06:34.284Z,7360
2018-04-01T10:07:34.304Z,7500
2018-04-01T10:08:34.326Z,7600
2018-04-01T10:09:34.079Z,7772
2018-04-01T10:10:34.346Z,8648
2018-04-01T10:11:49.028Z,8148
2018-04-01T10:12:34.381Z,7668
2018-04-01T10:13:34.393Z,8024
2018-04-01T10:14:34.151Z,8164
2018-04-01T10:15:49.094Z,7212
2018-04-01T10:16:34.193Z,7820
2018-04-01T10:17:34.455Z,7840
2018-04-01T10:18:34.469Z,8308
2018-04-01T10:19:34.230Z,8108
2018-04-01T10:20:34.512Z,8500
2018-04-01T10:21:34.518Z,7440
2018-04-01T10:22:34.281Z,8100
2018-04-01T10:23:34.033Z,8096
2018-04-01T10:24:34.565Z,7504
2018-04-01T10:25:34.324Z,8032
2018-04-01T10:26:33.823Z,8336
2018-04-01T10:28:03.934Z,7588
2018-04-01T10:28:34.630Z,7736
2018-04-01T10:29:34.130Z,8548
2018-04-01T10:30:34.409Z,8232
2018-04-01T10:31:34.419Z,9544
2018-04-01T10:33:34.710Z,9308
2018-04-01T10:34:34.479Z,9156
2018-04-01T10:35:34.790Z,8752
2018-04-01T10:36:34.498Z,9160
2018-04-01T10:37:34.774Z,10028
2018-04-01T10:38:34.580Z,9044
2018-04-01T10:39:34.288Z,8584
2018-04-01T10:40:34.832Z,9956
2018-04-01T10:41:49.497Z,8924
2018-04-01T10:42:34.593Z,8980
2018-04-01T10:43:49.019Z,9320
2018-04-01T10:44:34.886Z,10260
2018-04-01T10:45:34.909Z,10268
2018-04-01T10:46:34.659Z,10664
2018-04-01T10:47:34.934Z,10948
2018-04-01T10:48:34.952Z,10900
2018-04-01T10:49:35.177Z,10564
2018-04-01T10:50:34.985Z,10744
2018-04-01T10:51:49.658Z,11128
2018-04-01T10:52:35.017Z,10532
2018-04-01T10:53:34.775Z,10168
2018-04-01T10:54:35.054Z,10896
2018-04-01T10:55:34.545Z,10132
2018-04-01T10:56:34.566Z,8412
2018-04-01T10:57:35.107Z,8060
2018-04-01T10:58:49.511Z,8308
2018-04-01T10:59:49.536Z,7704
2018-04-01T11:00:34.890Z,9556
2018-04-01T11:01:34.651Z,9300
2018-04-01T11:02:34.919Z,8812
2018-04-01T11:03:34.942Z,9588
2018-04-01T11:04:35.209Z,8504
2018-04-01T11:05:35.228Z,7708
2018-04-01T11:06:35.244Z,8120
2018-04-01T11:07:35.260Z,8428
2018-04-01T11:08:35.276Z,8560
2018-04-01T11:10:35.319Z,8432
2018-04-01T11:12:34.821Z,7508
2018-04-01T11:13:35.356Z,7996
2018-04-01T11:14:35.373Z,7972
2018-04-01T11:15:35.393Z,7784
2018-04-01T11:16:35.144Z,7796
2018-04-01T11:17:34.907Z,7064
2018-04-01T11:19:34.935Z,7944
2018-04-01T11:20:35.471Z,7984
2018-04-01T11:21:50.146Z,7704
2018-04-01T11:22:34.982Z,7348
2018-04-01T11:23:35.516Z,6772
2018-04-01T11:24:35.536Z,7244
2018-04-01T11:25:35.555Z,7048
2018-04-01T11:26:35.044Z,6588
2018-04-01T11:27:35.581Z,6492
2018-04-01T11:28:35.594Z,6980
2018-04-01T11:30:50.336Z,6124
2018-04-01T11:31:35.648Z,5760
2018-04-01T11:32:35.668Z,5900
2018-04-01T11:33:35.694Z,6836
2018-04-01T11:34:35.435Z,5696
2018-04-01T11:35:35.191Z,6288
2018-04-01T11:36:35.727Z,6440
2018-04-01T11:37:35.743Z,5392
2018-04-01T11:38:35.759Z,5392
2018-04-01T11:39:34.995Z,5176
2018-04-01T11:40:35.785Z,5932
2018-04-01T11:41:35.544Z,5816
2018-04-01T11:42:35.881Z,6292
2018-04-01T11:44:35.855Z,7392
2018-04-01T11:45:35.864Z,6732
2018-04-01T11:47:05.199Z,6996
2018-04-01T11:47:35.900Z,7964
2018-04-01T11:48:35.865Z,6572
2018-04-01T11:49:35.935Z,6720
2018-04-01T11:50:35.946Z,5924
2018-04-01T11:51:35.967Z,6604
2018-04-01T11:52:35.976Z,8468
2018-04-01T11:53:35.737Z,8352
2018-04-01T11:54:36.018Z,8048
2018-04-01T11:55:35.505Z,9004
2018-04-01T11:56:36.042Z,8976
2018-04-01T11:57:35.798Z,8924
2018-04-01T11:58:36.079Z,8612
2018-04-01T11:59:36.087Z,8692
2018-04-01T12:00:36.114Z,8584
2018-04-01T12:01:36.117Z,8792
2018-04-01T12:02:50.577Z,9032
2018-04-01T12:03:50.817Z,9004
2018-04-01T12:05:36.194Z,7752
2018-04-01T12:06:36.203Z,7500
2018-04-01T12:07:36.214Z,7752
2018-04-01T12:08:36.235Z,7464
2018-04-01T12:09:35.737Z,7372
2018-04-01T12:10:36.270Z,7360
2018-04-01T12:11:36.022Z,6164
2018-04-01T12:12:36.294Z,6808
2018-04-01T12:13:36.312Z,8448
2018-04-01T12:15:36.083Z,6792
2018-04-01T12:16:51.017Z,7624
2018-04-01T12:17:36.376Z,8020
2018-04-01T12:18:51.049Z,7868
2018-04-01T12:19:36.152Z,7416
2018-04-01T12:20:36.428Z,7276
2018-04-01T12:21:36.444Z,8728
2018-04-01T12:22:36.453Z,7856
2018-04-01T12:23:36.486Z,6892
2018-04-01T12:24:36.231Z,6736
2018-04-01T12:25:51.261Z,6540
2018-04-01T12:27:36.275Z,6204
2018-04-01T12:28:36.550Z,6460
2018-04-01T12:29:36.567Z,6024
2018-04-01T12:30:36.594Z,5168
2018-04-01T12:34:05.948Z,6456
2018-04-01T12:34:36.669Z,5664
2018-04-01T12:35:36.670Z,4524
2018-04-01T12:36:36.683Z,6700
2018-04-01T12:37:36.700Z,6264
2018-04-01T12:38:36.718Z,5680
2018-04-01T12:39:36.727Z,6312
2018-04-01T12:40:36.485Z,6608
2018-04-01T12:41:36.499Z,6544
2018-04-01T12:43:36.799Z,6136
2018-04-01T12:44:36.809Z,6852
2018-04-01T12:45:36.823Z,5112
2018-04-01T12:46:36.844Z,5756
2018-04-01T12:47:51.260Z,6640
2018-04-01T12:48:36.358Z,5996
2018-04-01T12:49:36.642Z,5460
2018-04-01T12:50:36.908Z,4936
2018-04-01T12:51:36.920Z,5192
2018-04-01T12:52:36.938Z,5304
2018-04-01T12:54:36.708Z,4376
2018-04-01T12:55:51.643Z,4332
2018-04-01T12:56:51.659Z,4144
2018-04-01T12:57:51.672Z,5000
2018-04-01T12:58:36.515Z,5064
2018-04-01T12:59:37.056Z,5112
2018-04-01T13:01:36.824Z,5376
2018-04-01T13:02:36.835Z,4432
2018-04-01T13:03:36.851Z,4500
2018-04-01T13:04:36.608Z,4480
2018-04-01T13:05:51.804Z,5308
2018-04-01T13:06:37.162Z,5536
2018-04-01T13:07:37.175Z,5808
2018-04-01T13:08:37.193Z,5244
2018-04-01T13:09:37.214Z,4972
2018-04-01T13:10:37.442Z,5120
2018-04-01T13:11:37.244Z,4616
2018-04-01T13:12:51.908Z,5108
2018-04-01T13:13:37.266Z,5144
2018-04-01T13:14:51.947Z,5320
2018-04-01T13:15:37.298Z,5564
2018-04-01T13:16:37.319Z,6700
2018-04-01T13:17:37.129Z,7012
2018-04-01T13:19:52.023Z,4892
2018-04-01T13:20:37.122Z,4568
2018-04-01T13:21:52.055Z,4400
2018-04-01T13:22:37.413Z,4928
2018-04-01T13:23:37.426Z,4460
2018-04-01T13:24:37.441Z,4124
2018-04-01T13:25:51.598Z,5220
2018-04-01T13:26:37.482Z,4928
2018-04-01T13:27:37.229Z,5072
2018-04-01T13:28:52.162Z,5376
2018-04-01T13:29:52.235Z,5192
2018-04-01T13:30:37.276Z,4548
2018-04-01T13:31:37.555Z,4200
2018-04-01T13:32:52.325Z,3488
2018-04-01T13:33:37.587Z,3872
2018-04-01T13:34:37.599Z,3320
2018-04-01T13:35:52.274Z,2868
2018-04-01T13:36:37.635Z,3196
2018-04-01T13:38:06.961Z,3476
2018-04-01T13:38:37.409Z,3388
2018-04-01T13:39:37.420Z,3544
2018-04-01T13:40:37.693Z,3248
2018-04-01T13:41:37.707Z,3576
2018-04-01T13:42:37.730Z,3700
2018-04-01T13:43:37.740Z,3856
2018-04-01T13:44:37.754Z,3932
2018-04-01T13:45:37.770Z,4100
2018-04-01T13:46:52.449Z,3776
2018-04-01T13:47:37.806Z,3572
2018-04-01T13:48:37.817Z,3768
2018-04-01T13:49:37.846Z,4092
2018-04-01T13:50:38.117Z,3616
2018-04-01T13:51:52.522Z,4144
2018-04-01T13:52:37.622Z,3552
2018-04-01T13:54:07.211Z,2548
2018-04-01T13:54:37.912Z,2504
2018-04-01T13:55:37.925Z,2588
2018-04-01T13:56:37.946Z,2344
2018-04-01T13:57:37.957Z,1932
2018-04-01T13:58:37.973Z,1620
2018-04-01T13:59:37.990Z,1872
2018-04-01T14:00:37.590Z,2372
2018-04-01T14:01:38.036Z,2492
2018-04-01T14:02:37.832Z,2592
2018-04-01T14:03:38.049Z,2236
2018-04-01T14:04:37.907Z,2012
2018-04-01T14:05:37.822Z,2096
2018-04-01T14:06:38.096Z,1880
2018-04-01T14:07:38.114Z,2900
2018-04-01T14:08:52.785Z,3268
2018-04-01T14:09:38.147Z,3452
2018-04-01T14:10:38.174Z,3896
2018-04-01T14:11:37.914Z,3772
2018-04-01T14:12:38.189Z,3688
2018-04-01T14:13:38.212Z,3052
2018-04-01T14:14:37.963Z,3476
2018-04-01T14:15:37.980Z,3588
2018-04-01T14:16:37.989Z,3952
2018-04-01T14:17:38.266Z,3804
2018-04-01T14:18:38.280Z,3988
2018-04-01T14:19:38.040Z,3452
2018-04-01T14:20:38.311Z,3336
2018-04-01T14:22:38.346Z,2592
2018-04-01T14:23:53.013Z,2628
2018-04-01T14:24:38.373Z,2704
2018-04-01T14:25:38.393Z,3240
2018-04-01T14:26:38.402Z,3468
2018-04-01T14:27:38.158Z,3912
2018-04-01T14:29:38.452Z,3816
2018-04-01T14:30:38.203Z,3956
2018-04-01T14:31:38.480Z,3836
2018-04-01T14:32:53.155Z,3324
2018-04-01T14:33:38.254Z,3288
2018-04-01T14:34:38.530Z,3192
2018-04-01T14:35:38.537Z,3208
2018-04-01T14:36:38.297Z,3068
2018-04-01T14:37:38.567Z,3056
2018-04-01T14:38:38.726Z,3172
2018-04-01T14:39:38.601Z,2880